sensor_id;sensor_type;location;lat;lon;timestamp;P1;durP1;ratioP1;P2;durP2;ratioP2
80219;SDS011;69535;37.974;23.708;2023-05-10T00:02:06;5.85;;;3.80;;
80219;SDS011;69535;37.974;23.708;2023-05-10T00:04:32;6.57;;;4.00;;
80219;SDS011;69535;37.974;23.708;2023-05-10T00:06:58;6.82;;;4.15;;
80219;SDS011;69535;37.974;23.708;2023-05-10T00:09:24;7.88;;;4.20;;
80219;SDS011;69535;37.974;23.708;2023-05-10T00:11:49;7.15;;;4.22;;
80219;SDS011;69535;37.974;23.708;2023-05-10T00:14:15;7.13;;;4.03;;
80219;SDS011;69535;37.974;23.708;2023-05-10T00:16:41;6.00;;;3.90;;
80219;SDS011;69535;37.974;23.708;2023-05-10T00:19:07;6.07;;;3.90;;
80219;SDS011;69535;37.974;23.708;2023-05-10T00:21:33;9.90;;;3.90;;
80219;SDS011;69535;37.974;23.708;2023-05-10T00:23:59;6.55;;;4.00;;
80219;SDS011;69535;37.974;23.708;2023-05-10T00:26:25;5.63;;;4.05;;
80219;SDS011;69535;37.974;23.708;2023-05-10T00:28:50;5.95;;;3.92;;
80219;SDS011;69535;37.974;23.708;2023-05-10T00:31:16;7.53;;;3.85;;
80219;SDS011;69535;37.974;23.708;2023-05-10T00:33:42;5.82;;;3.83;;
80219;SDS011;69535;37.974;23.708;2023-05-10T00:36:08;5.90;;;3.63;;
80219;SDS011;69535;37.974;23.708;2023-05-10T00:38:33;5.55;;;3.75;;
80219;SDS011;69535;37.974;23.708;2023-05-10T00:40:59;6.63;;;4.10;;
80219;SDS011;69535;37.974;23.708;2023-05-10T00:43:25;7.45;;;4.10;;
80219;SDS011;69535;37.974;23.708;2023-05-10T00:45:51;7.53;;;3.90;;
80219;SDS011;69535;37.974;23.708;2023-05-10T00:48:17;5.28;;;3.72;;
80219;SDS011;69535;37.974;23.708;2023-05-10T00:50:43;6.13;;;3.53;;
80219;SDS011;69535;37.974;23.708;2023-05-10T00:53:09;8.07;;;4.07;;
80219;SDS011;69535;37.974;23.708;2023-05-10T00:55:35;6.05;;;3.75;;
80219;SDS011;69535;37.974;23.708;2023-05-10T00:58:02;5.70;;;3.58;;
80219;SDS011;69535;37.974;23.708;2023-05-10T01:00:28;5.88;;;3.80;;
80219;SDS011;69535;37.974;23.708;2023-05-10T01:02:54;7.00;;;4.00;;
80219;SDS011;69535;37.974;23.708;2023-05-10T01:05:20;7.63;;;4.13;;
80219;SDS011;69535;37.974;23.708;2023-05-10T01:07:46;6.07;;;3.80;;
80219;SDS011;69535;37.974;23.708;2023-05-10T01:10:13;7.00;;;4.03;;
80219;SDS011;69535;37.974;23.708;2023-05-10T01:12:40;7.15;;;4.00;;
80219;SDS011;69535;37.974;23.708;2023-05-10T01:15:07;5.88;;;3.80;;
80219;SDS011;69535;37.974;23.708;2023-05-10T01:17:36;6.60;;;3.65;;
80219;SDS011;69535;37.974;23.708;2023-05-10T01:20:04;5.82;;;3.50;;
80219;SDS011;69535;37.974;23.708;2023-05-10T01:41:22;6.32;;;3.75;;
80219;SDS011;69535;37.974;23.708;2023-05-10T01:44:10;7.20;;;3.67;;
80219;SDS011;69535;37.974;23.708;2023-05-10T01:47:02;7.57;;;3.80;;
80219;SDS011;69535;37.974;23.708;2023-05-10T01:49:34;5.65;;;3.38;;
80219;SDS011;69535;37.974;23.708;2023-05-10T01:52:11;5.60;;;3.63;;
80219;SDS011;69535;37.974;23.708;2023-05-10T01:54:49;6.75;;;3.60;;
80219;SDS011;69535;37.974;23.708;2023-05-10T01:57:20;7.05;;;3.50;;
80219;SDS011;69535;37.974;23.708;2023-05-10T01:59:50;6.90;;;3.40;;
80219;SDS011;69535;37.974;23.708;2023-05-10T02:02:18;5.43;;;3.28;;
80219;SDS011;69535;37.974;23.708;2023-05-10T02:04:46;4.88;;;3.17;;
80219;SDS011;69535;37.974;23.708;2023-05-10T02:07:14;4.97;;;3.20;;
80219;SDS011;69535;37.974;23.708;2023-05-10T02:09:41;7.35;;;3.45;;
80219;SDS011;69535;37.974;23.708;2023-05-10T02:12:12;5.72;;;3.38;;
80219;SDS011;69535;37.974;23.708;2023-05-10T02:14:40;7.20;;;3.40;;
80219;SDS011;69535;37.974;23.708;2023-05-10T02:17:07;7.50;;;3.30;;
80219;SDS011;69535;37.974;23.708;2023-05-10T02:19:35;5.82;;;3.22;;
80219;SDS011;69535;37.974;23.708;2023-05-10T02:22:05;6.35;;;3.15;;
80219;SDS011;69535;37.974;23.708;2023-05-10T02:24:33;6.13;;;2.80;;
80219;SDS011;69535;37.974;23.708;2023-05-10T02:27:01;4.13;;;2.90;;
80219;SDS011;69535;37.974;23.708;2023-05-10T02:29:28;4.18;;;2.90;;
80219;SDS011;69535;37.974;23.708;2023-05-10T02:31:56;5.20;;;2.97;;
80219;SDS011;69535;37.974;23.708;2023-05-10T02:34:24;7.22;;;3.15;;
80219;SDS011;69535;37.974;23.708;2023-05-10T02:36:52;6.72;;;3.15;;
80219;SDS011;69535;37.974;23.708;2023-05-10T02:39:20;7.15;;;2.95;;
80219;SDS011;69535;37.974;23.708;2023-05-10T02:41:48;5.47;;;3.00;;
80219;SDS011;69535;37.974;23.708;2023-05-10T02:44:16;7.88;;;3.05;;
80219;SDS011;69535;37.974;23.708;2023-05-10T02:46:44;5.57;;;3.03;;
80219;SDS011;69535;37.974;23.708;2023-05-10T02:49:10;6.13;;;3.05;;
80219;SDS011;69535;37.974;23.708;2023-05-10T02:51:37;6.47;;;3.25;;
80219;SDS011;69535;37.974;23.708;2023-05-10T02:54:12;7.32;;;3.38;;
80219;SDS011;69535;37.974;23.708;2023-05-10T02:56:47;6.03;;;3.05;;
80219;SDS011;69535;37.974;23.708;2023-05-10T02:59:16;7.10;;;3.13;;
80219;SDS011;69535;37.974;23.708;2023-05-10T03:01:41;5.07;;;2.97;;
80219;SDS011;69535;37.974;23.708;2023-05-10T03:04:07;4.70;;;2.90;;
80219;SDS011;69535;37.974;23.708;2023-05-10T03:06:33;3.80;;;2.80;;
80219;SDS011;69535;37.974;23.708;2023-05-10T03:08:59;5.03;;;2.75;;
80219;SDS011;69535;37.974;23.708;2023-05-10T03:17:04;5.78;;;3.10;;
80219;SDS011;69535;37.974;23.708;2023-05-10T03:19:42;7.47;;;3.40;;
80219;SDS011;69535;37.974;23.708;2023-05-10T03:22:26;6.50;;;3.00;;
80219;SDS011;69535;37.974;23.708;2023-05-10T03:24:57;7.90;;;3.10;;
80219;SDS011;69535;37.974;23.708;2023-05-10T03:27:26;6.22;;;3.30;;
80219;SDS011;69535;37.974;23.708;2023-05-10T03:29:53;4.90;;;2.70;;
80219;SDS011;69535;37.974;23.708;2023-05-10T03:32:20;4.97;;;2.80;;
80219;SDS011;69535;37.974;23.708;2023-05-10T03:34:45;4.30;;;2.63;;
80219;SDS011;69535;37.974;23.708;2023-05-10T03:37:11;5.70;;;2.63;;
80219;SDS011;69535;37.974;23.708;2023-05-10T03:39:37;5.13;;;2.88;;
80219;SDS011;69535;37.974;23.708;2023-05-10T03:42:02;4.68;;;2.85;;
80219;SDS011;69535;37.974;23.708;2023-05-10T03:44:28;5.30;;;3.20;;
80219;SDS011;69535;37.974;23.708;2023-05-10T03:46:54;6.32;;;3.15;;
80219;SDS011;69535;37.974;23.708;2023-05-10T03:49:20;5.30;;;2.90;;
80219;SDS011;69535;37.974;23.708;2023-05-10T03:51:46;4.90;;;2.90;;
80219;SDS011;69535;37.974;23.708;2023-05-10T03:54:12;4.35;;;2.80;;
80219;SDS011;69535;37.974;23.708;2023-05-10T03:56:37;6.15;;;2.70;;
80219;SDS011;69535;37.974;23.708;2023-05-10T03:59:03;4.43;;;2.60;;
80219;SDS011;69535;37.974;23.708;2023-05-10T04:01:32;5.60;;;2.92;;
80219;SDS011;69535;37.974;23.708;2023-05-10T04:03:58;5.70;;;2.90;;
80219;SDS011;69535;37.974;23.708;2023-05-10T04:06:24;6.30;;;3.00;;
80219;SDS011;69535;37.974;23.708;2023-05-10T04:08:50;4.85;;;2.72;;
80219;SDS011;69535;37.974;23.708;2023-05-10T04:11:15;6.78;;;3.33;;
80219;SDS011;69535;37.974;23.708;2023-05-10T04:13:41;5.07;;;2.78;;
80219;SDS011;69535;37.974;23.708;2023-05-10T04:16:08;4.03;;;2.83;;
80219;SDS011;69535;37.974;23.708;2023-05-10T04:18:33;5.80;;;3.38;;
80219;SDS011;69535;37.974;23.708;2023-05-10T04:20:59;9.02;;;3.28;;
80219;SDS011;69535;37.974;23.708;2023-05-10T04:23:26;17.42;;;3.45;;
80219;SDS011;69535;37.974;23.708;2023-05-10T04:25:52;22.33;;;3.78;;
80219;SDS011;69535;37.974;23.708;2023-05-10T04:28:18;14.95;;;3.58;;
80219;SDS011;69535;37.974;23.708;2023-05-10T04:30:43;17.42;;;3.40;;
80219;SDS011;69535;37.974;23.708;2023-05-10T04:33:09;14.45;;;3.80;;
80219;SDS011;69535;37.974;23.708;2023-05-10T04:35:35;11.82;;;3.17;;
80219;SDS011;69535;37.974;23.708;2023-05-10T04:38:00;9.95;;;3.10;;
80219;SDS011;69535;37.974;23.708;2023-05-10T04:40:26;15.57;;;3.35;;
80219;SDS011;69535;37.974;23.708;2023-05-10T04:42:52;18.73;;;4.03;;
80219;SDS011;69535;37.974;23.708;2023-05-10T04:45:17;11.50;;;3.13;;
80219;SDS011;69535;37.974;23.708;2023-05-10T04:47:43;10.25;;;2.90;;
80219;SDS011;69535;37.974;23.708;2023-05-10T04:50:09;8.02;;;3.60;;
80219;SDS011;69535;37.974;23.708;2023-05-10T04:52:34;10.43;;;3.42;;
80219;SDS011;69535;37.974;23.708;2023-05-10T04:55:01;10.30;;;3.13;;
80219;SDS011;69535;37.974;23.708;2023-05-10T04:57:27;11.60;;;3.05;;
80219;SDS011;69535;37.974;23.708;2023-05-10T04:59:52;10.05;;;3.30;;
80219;SDS011;69535;37.974;23.708;2023-05-10T05:02:18;12.73;;;3.50;;
80219;SDS011;69535;37.974;23.708;2023-05-10T05:04:44;9.98;;;3.40;;
80219;SDS011;69535;37.974;23.708;2023-05-10T05:07:09;5.47;;;2.78;;
80219;SDS011;69535;37.974;23.708;2023-05-10T05:09:35;6.18;;;2.95;;
80219;SDS011;69535;37.974;23.708;2023-05-10T05:12:01;7.22;;;3.20;;
80219;SDS011;69535;37.974;23.708;2023-05-10T05:14:26;5.65;;;3.03;;
80219;SDS011;69535;37.974;23.708;2023-05-10T05:16:52;8.30;;;2.97;;
80219;SDS011;69535;37.974;23.708;2023-05-10T05:19:18;6.75;;;3.25;;
80219;SDS011;69535;37.974;23.708;2023-05-10T05:21:44;4.55;;;2.90;;
80219;SDS011;69535;37.974;23.708;2023-05-10T05:24:09;6.22;;;3.08;;
80219;SDS011;69535;37.974;23.708;2023-05-10T05:26:37;6.15;;;3.03;;
80219;SDS011;69535;37.974;23.708;2023-05-10T05:29:03;5.43;;;3.10;;
80219;SDS011;69535;37.974;23.708;2023-05-10T05:31:29;5.95;;;2.97;;
80219;SDS011;69535;37.974;23.708;2023-05-10T05:33:54;4.93;;;2.97;;
80219;SDS011;69535;37.974;23.708;2023-05-10T05:36:20;4.93;;;2.97;;
80219;SDS011;69535;37.974;23.708;2023-05-10T05:38:46;3.13;;;2.63;;
80219;SDS011;69535;37.974;23.708;2023-05-10T05:41:12;4.60;;;2.75;;
80219;SDS011;69535;37.974;23.708;2023-05-10T05:43:38;6.30;;;3.33;;
80219;SDS011;69535;37.974;23.708;2023-05-10T05:46:04;6.25;;;2.97;;
80219;SDS011;69535;37.974;23.708;2023-05-10T05:48:30;3.97;;;2.90;;
80219;SDS011;69535;37.974;23.708;2023-05-10T05:50:56;5.85;;;2.88;;
80219;SDS011;69535;37.974;23.708;2023-05-10T05:53:22;7.15;;;2.88;;
80219;SDS011;69535;37.974;23.708;2023-05-10T05:55:52;5.97;;;3.00;;
80219;SDS011;69535;37.974;23.708;2023-05-10T05:58:22;4.18;;;2.65;;
80219;SDS011;69535;37.974;23.708;2023-05-10T06:00:49;4.05;;;2.60;;
80219;SDS011;69535;37.974;23.708;2023-05-10T06:03:15;7.10;;;3.20;;
80219;SDS011;69535;37.974;23.708;2023-05-10T06:05:41;5.53;;;2.80;;
80219;SDS011;69535;37.974;23.708;2023-05-10T06:08:07;4.70;;;2.83;;
80219;SDS011;69535;37.974;23.708;2023-05-10T06:10:32;4.57;;;2.58;;
80219;SDS011;69535;37.974;23.708;2023-05-10T06:12:58;5.60;;;2.80;;
80219;SDS011;69535;37.974;23.708;2023-05-10T06:15:24;5.82;;;2.97;;
80219;SDS011;69535;37.974;23.708;2023-05-10T06:17:51;5.55;;;2.80;;
80219;SDS011;69535;37.974;23.708;2023-05-10T06:20:16;5.50;;;2.72;;
80219;SDS011;69535;37.974;23.708;2023-05-10T06:22:42;5.22;;;2.88;;
80219;SDS011;69535;37.974;23.708;2023-05-10T06:25:08;5.97;;;3.10;;
80219;SDS011;69535;37.974;23.708;2023-05-10T06:27:34;5.53;;;2.80;;
80219;SDS011;69535;37.974;23.708;2023-05-10T06:30:00;7.50;;;3.30;;
80219;SDS011;69535;37.974;23.708;2023-05-10T06:32:27;6.40;;;2.78;;
80219;SDS011;69535;37.974;23.708;2023-05-10T06:34:53;6.15;;;2.95;;
80219;SDS011;69535;37.974;23.708;2023-05-10T06:37:19;8.10;;;3.00;;
80219;SDS011;69535;37.974;23.708;2023-05-10T06:39:45;6.00;;;3.10;;
80219;SDS011;69535;37.974;23.708;2023-05-10T06:42:11;5.53;;;3.00;;
80219;SDS011;69535;37.974;23.708;2023-05-10T06:44:36;6.72;;;2.90;;
80219;SDS011;69535;37.974;23.708;2023-05-10T06:47:02;5.53;;;2.72;;
80219;SDS011;69535;37.974;23.708;2023-05-10T06:49:28;5.40;;;2.90;;
80219;SDS011;69535;37.974;23.708;2023-05-10T06:51:55;3.63;;;2.78;;
80219;SDS011;69535;37.974;23.708;2023-05-10T06:54:21;7.55;;;3.13;;
80219;SDS011;69535;37.974;23.708;2023-05-10T06:56:46;5.00;;;2.88;;
80219;SDS011;69535;37.974;23.708;2023-05-10T06:59:12;5.47;;;2.83;;
80219;SDS011;69535;37.974;23.708;2023-05-10T07:01:38;4.72;;;2.85;;
80219;SDS011;69535;37.974;23.708;2023-05-10T07:04:04;6.43;;;3.08;;
80219;SDS011;69535;37.974;23.708;2023-05-10T07:06:32;4.18;;;2.88;;
80219;SDS011;69535;37.974;23.708;2023-05-10T07:08:58;6.78;;;2.70;;
80219;SDS011;69535;37.974;23.708;2023-05-10T07:11:24;5.72;;;2.75;;
80219;SDS011;69535;37.974;23.708;2023-05-10T07:13:50;4.60;;;2.65;;
80219;SDS011;69535;37.974;23.708;2023-05-10T07:16:15;4.20;;;2.92;;
80219;SDS011;69535;37.974;23.708;2023-05-10T07:18:41;4.25;;;2.95;;
80219;SDS011;69535;37.974;23.708;2023-05-10T07:21:07;4.90;;;2.75;;
80219;SDS011;69535;37.974;23.708;2023-05-10T07:23:33;5.45;;;3.08;;
80219;SDS011;69535;37.974;23.708;2023-05-10T07:25:59;4.38;;;2.80;;
80219;SDS011;69535;37.974;23.708;2023-05-10T07:28:27;4.85;;;2.60;;
80219;SDS011;69535;37.974;23.708;2023-05-10T07:30:52;5.32;;;3.25;;
80219;SDS011;69535;37.974;23.708;2023-05-10T07:33:18;4.50;;;2.80;;
80219;SDS011;69535;37.974;23.708;2023-05-10T07:35:44;7.38;;;3.10;;
80219;SDS011;69535;37.974;23.708;2023-05-10T07:38:09;5.47;;;3.13;;
80219;SDS011;69535;37.974;23.708;2023-05-10T07:40:39;5.15;;;2.92;;
80219;SDS011;69535;37.974;23.708;2023-05-10T07:43:04;3.90;;;3.10;;
80219;SDS011;69535;37.974;23.708;2023-05-10T07:45:30;6.95;;;3.15;;
80219;SDS011;69535;37.974;23.708;2023-05-10T07:47:56;5.78;;;2.80;;
80219;SDS011;69535;37.974;23.708;2023-05-10T07:50:22;5.25;;;2.90;;
80219;SDS011;69535;37.974;23.708;2023-05-10T07:52:48;4.50;;;2.80;;
80219;SDS011;69535;37.974;23.708;2023-05-10T07:55:13;3.70;;;2.97;;
80219;SDS011;69535;37.974;23.708;2023-05-10T07:57:39;7.28;;;3.40;;
80219;SDS011;69535;37.974;23.708;2023-05-10T08:00:05;7.10;;;3.40;;
80219;SDS011;69535;37.974;23.708;2023-05-10T08:02:32;5.28;;;3.10;;
80219;SDS011;69535;37.974;23.708;2023-05-10T08:04:59;5.65;;;3.45;;
80219;SDS011;69535;37.974;23.708;2023-05-10T08:07:25;6.22;;;3.20;;
80219;SDS011;69535;37.974;23.708;2023-05-10T08:09:51;6.65;;;2.72;;
80219;SDS011;69535;37.974;23.708;2023-05-10T08:12:16;4.93;;;2.85;;
80219;SDS011;69535;37.974;23.708;2023-05-10T08:14:42;5.15;;;2.97;;
80219;SDS011;69535;37.974;23.708;2023-05-10T08:17:08;5.90;;;3.60;;
80219;SDS011;69535;37.974;23.708;2023-05-10T08:19:34;4.50;;;3.10;;
80219;SDS011;69535;37.974;23.708;2023-05-10T08:21:59;4.75;;;2.90;;
80219;SDS011;69535;37.974;23.708;2023-05-10T08:24:25;4.93;;;3.17;;
80219;SDS011;69535;37.974;23.708;2023-05-10T08:26:51;5.05;;;3.03;;
80219;SDS011;69535;37.974;23.708;2023-05-10T08:29:17;6.90;;;3.10;;
80219;SDS011;69535;37.974;23.708;2023-05-10T08:31:42;4.97;;;3.10;;
80219;SDS011;69535;37.974;23.708;2023-05-10T08:34:08;6.03;;;3.40;;
80219;SDS011;69535;37.974;23.708;2023-05-10T08:36:34;6.88;;;2.88;;
80219;SDS011;69535;37.974;23.708;2023-05-10T08:39:00;5.70;;;3.28;;
80219;SDS011;69535;37.974;23.708;2023-05-10T08:41:25;4.70;;;3.20;;
80219;SDS011;69535;37.974;23.708;2023-05-10T08:43:54;4.88;;;2.92;;
80219;SDS011;69535;37.974;23.708;2023-05-10T08:46:20;5.32;;;2.97;;
80219;SDS011;69535;37.974;23.708;2023-05-10T08:48:48;6.10;;;2.75;;
80219;SDS011;69535;37.974;23.708;2023-05-10T08:51:19;6.22;;;2.95;;
80219;SDS011;69535;37.974;23.708;2023-05-10T08:53:47;5.82;;;3.35;;
80219;SDS011;69535;37.974;23.708;2023-05-10T08:56:13;4.15;;;2.97;;
80219;SDS011;69535;37.974;23.708;2023-05-10T08:58:40;4.38;;;3.00;;
80219;SDS011;69535;37.974;23.708;2023-05-10T09:01:06;3.47;;;2.80;;
80219;SDS011;69535;37.974;23.708;2023-05-10T09:03:33;3.78;;;2.90;;
80219;SDS011;69535;37.974;23.708;2023-05-10T09:06:00;5.00;;;3.10;;
80219;SDS011;69535;37.974;23.708;2023-05-10T09:08:26;7.40;;;3.33;;
80219;SDS011;69535;37.974;23.708;2023-05-10T09:10:52;4.63;;;2.70;;
80219;SDS011;69535;37.974;23.708;2023-05-10T09:13:19;4.32;;;3.10;;
80219;SDS011;69535;37.974;23.708;2023-05-10T09:15:47;7.85;;;3.05;;
80219;SDS011;69535;37.974;23.708;2023-05-10T09:18:13;6.05;;;3.13;;
80219;SDS011;69535;37.974;23.708;2023-05-10T09:20:39;4.47;;;3.08;;
80219;SDS011;69535;37.974;23.708;2023-05-10T09:23:06;5.00;;;2.97;;
80219;SDS011;69535;37.974;23.708;2023-05-10T09:25:32;4.68;;;2.78;;
80219;SDS011;69535;37.974;23.708;2023-05-10T09:28:02;4.03;;;2.95;;
80219;SDS011;69535;37.974;23.708;2023-05-10T09:30:32;4.88;;;2.75;;
80219;SDS011;69535;37.974;23.708;2023-05-10T09:32:58;5.47;;;2.90;;
80219;SDS011;69535;37.974;23.708;2023-05-10T09:35:26;4.07;;;2.70;;
80219;SDS011;69535;37.974;23.708;2023-05-10T09:37:53;5.25;;;2.90;;
80219;SDS011;69535;37.974;23.708;2023-05-10T09:40:23;4.85;;;3.00;;
80219;SDS011;69535;37.974;23.708;2023-05-10T09:43:08;4.30;;;3.05;;
80219;SDS011;69535;37.974;23.708;2023-05-10T09:45:35;7.45;;;3.05;;
80219;SDS011;69535;37.974;23.708;2023-05-10T09:48:21;5.40;;;2.60;;
80219;SDS011;69535;37.974;23.708;2023-05-10T09:50:55;4.00;;;2.67;;
80219;SDS011;69535;37.974;23.708;2023-05-10T09:53:22;5.88;;;2.90;;
80219;SDS011;69535;37.974;23.708;2023-05-10T09:55:48;7.10;;;2.88;;
80219;SDS011;69535;37.974;23.708;2023-05-10T09:58:15;3.63;;;2.80;;
80219;SDS011;69535;37.974;23.708;2023-05-10T10:00:44;4.93;;;3.03;;
80219;SDS011;69535;37.974;23.708;2023-05-10T10:03:16;5.07;;;2.88;;
80219;SDS011;69535;37.974;23.708;2023-05-10T10:05:43;4.85;;;2.63;;
80219;SDS011;69535;37.974;23.708;2023-05-10T10:08:09;4.05;;;2.53;;
80219;SDS011;69535;37.974;23.708;2023-05-10T10:10:36;3.40;;;2.63;;
80219;SDS011;69535;37.974;23.708;2023-05-10T10:13:05;7.13;;;2.80;;
80219;SDS011;69535;37.974;23.708;2023-05-10T10:15:31;3.67;;;2.63;;
80219;SDS011;69535;37.974;23.708;2023-05-10T10:17:58;4.68;;;2.85;;
80219;SDS011;69535;37.974;23.708;2023-05-10T10:20:25;5.07;;;2.88;;
80219;SDS011;69535;37.974;23.708;2023-05-10T10:22:52;5.82;;;3.10;;
80219;SDS011;69535;37.974;23.708;2023-05-10T10:25:18;5.75;;;2.80;;
80219;SDS011;69535;37.974;23.708;2023-05-10T10:30:37;3.50;;;2.80;;
80219;SDS011;69535;37.974;23.708;2023-05-10T10:35:54;3.55;;;2.50;;
80219;SDS011;69535;37.974;23.708;2023-05-10T10:38:22;5.75;;;2.80;;
80219;SDS011;69535;37.974;23.708;2023-05-10T10:40:55;4.43;;;2.70;;
80219;SDS011;69535;37.974;23.708;2023-05-10T10:43:28;8.23;;;3.15;;
80219;SDS011;69535;37.974;23.708;2023-05-10T10:46:13;5.32;;;3.22;;
80219;SDS011;69535;37.974;23.708;2023-05-10T10:48:49;5.07;;;2.75;;
80219;SDS011;69535;37.974;23.708;2023-05-10T10:51:36;3.78;;;2.63;;
80219;SDS011;69535;37.974;23.708;2023-05-10T10:54:09;5.10;;;2.75;;
80219;SDS011;69535;37.974;23.708;2023-05-10T10:56:35;5.50;;;3.10;;
80219;SDS011;69535;37.974;23.708;2023-05-10T10:59:01;4.80;;;3.10;;
80219;SDS011;69535;37.974;23.708;2023-05-10T11:01:27;5.05;;;2.80;;
80219;SDS011;69535;37.974;23.708;2023-05-10T11:09:07;4.15;;;2.75;;
80219;SDS011;69535;37.974;23.708;2023-05-10T11:11:48;4.50;;;2.85;;
80219;SDS011;69535;37.974;23.708;2023-05-10T11:14:16;3.17;;;2.40;;
80219;SDS011;69535;37.974;23.708;2023-05-10T11:16:46;4.78;;;3.00;;
80219;SDS011;69535;37.974;23.708;2023-05-10T11:19:12;4.47;;;3.10;;
80219;SDS011;69535;37.974;23.708;2023-05-10T11:22:27;3.90;;;2.90;;
80219;SDS011;69535;37.974;23.708;2023-05-10T11:24:30;4.85;;;2.60;;
80219;SDS011;69535;37.974;23.708;2023-05-10T11:26:56;3.45;;;2.67;;
80219;SDS011;69535;37.974;23.708;2023-05-10T11:29:22;4.10;;;2.58;;
80219;SDS011;69535;37.974;23.708;2023-05-10T11:31:51;5.57;;;2.67;;
80219;SDS011;69535;37.974;23.708;2023-05-10T11:34:23;4.68;;;3.15;;
80219;SDS011;69535;37.974;23.708;2023-05-10T11:36:52;4.63;;;2.80;;
80219;SDS011;69535;37.974;23.708;2023-05-10T11:39:20;4.18;;;2.90;;
80219;SDS011;69535;37.974;23.708;2023-05-10T11:41:49;6.78;;;2.92;;
80219;SDS011;69535;37.974;23.708;2023-05-10T11:44:15;4.22;;;2.85;;
80219;SDS011;69535;37.974;23.708;2023-05-10T11:46:41;5.53;;;3.15;;
80219;SDS011;69535;37.974;23.708;2023-05-10T11:49:07;4.80;;;2.72;;
80219;SDS011;69535;37.974;23.708;2023-05-10T11:51:33;5.47;;;3.20;;
80219;SDS011;69535;37.974;23.708;2023-05-10T11:54:07;4.18;;;2.90;;
80219;SDS011;69535;37.974;23.708;2023-05-10T11:56:34;2.88;;;2.65;;
80219;SDS011;69535;37.974;23.708;2023-05-10T11:59:00;4.38;;;2.65;;
80219;SDS011;69535;37.974;23.708;2023-05-10T12:01:27;6.95;;;2.63;;
80219;SDS011;69535;37.974;23.708;2023-05-10T12:03:55;6.68;;;2.90;;
80219;SDS011;69535;37.974;23.708;2023-05-10T12:06:26;4.82;;;2.90;;
80219;SDS011;69535;37.974;23.708;2023-05-10T12:08:56;5.10;;;2.67;;
80219;SDS011;69535;37.974;23.708;2023-05-10T12:11:26;6.28;;;2.92;;
80219;SDS011;69535;37.974;23.708;2023-05-10T12:13:53;3.90;;;2.90;;
80219;SDS011;69535;37.974;23.708;2023-05-10T12:16:20;5.38;;;3.00;;
80219;SDS011;69535;37.974;23.708;2023-05-10T12:18:51;3.15;;;2.63;;
80219;SDS011;69535;37.974;23.708;2023-05-10T12:21:18;6.50;;;2.92;;
80219;SDS011;69535;37.974;23.708;2023-05-10T12:23:51;4.32;;;3.08;;
80219;SDS011;69535;37.974;23.708;2023-05-10T12:26:21;2.97;;;2.67;;
80219;SDS011;69535;37.974;23.708;2023-05-10T12:28:47;4.93;;;2.95;;
80219;SDS011;69535;37.974;23.708;2023-05-10T12:31:13;4.13;;;2.75;;
80219;SDS011;69535;37.974;23.708;2023-05-10T12:33:39;4.80;;;2.85;;
80219;SDS011;69535;37.974;23.708;2023-05-10T12:36:08;4.35;;;2.80;;
80219;SDS011;69535;37.974;23.708;2023-05-10T12:38:44;5.03;;;3.35;;
80219;SDS011;69535;37.974;23.708;2023-05-10T12:41:14;4.57;;;2.70;;
80219;SDS011;69535;37.974;23.708;2023-05-10T12:43:41;5.82;;;2.90;;
80219;SDS011;69535;37.974;23.708;2023-05-10T12:48:37;4.53;;;3.03;;
80219;SDS011;69535;37.974;23.708;2023-05-10T12:51:04;3.13;;;2.67;;
80219;SDS011;69535;37.974;23.708;2023-05-10T12:53:33;3.58;;;2.70;;
80219;SDS011;69535;37.974;23.708;2023-05-10T12:55:59;5.07;;;3.00;;
80219;SDS011;69535;37.974;23.708;2023-05-10T12:58:25;4.60;;;2.72;;
80219;SDS011;69535;37.974;23.708;2023-05-10T13:00:50;3.30;;;2.97;;
80219;SDS011;69535;37.974;23.708;2023-05-10T13:03:17;4.43;;;2.47;;
80219;SDS011;69535;37.974;23.708;2023-05-10T13:05:43;3.65;;;2.60;;
80219;SDS011;69535;37.974;23.708;2023-05-10T13:08:08;4.53;;;2.78;;
80219;SDS011;69535;37.974;23.708;2023-05-10T13:10:34;6.75;;;3.00;;
80219;SDS011;69535;37.974;23.708;2023-05-10T13:13:00;4.38;;;2.50;;
80219;SDS011;69535;37.974;23.708;2023-05-10T13:15:26;3.78;;;2.60;;
80219;SDS011;69535;37.974;23.708;2023-05-10T13:17:53;4.90;;;2.72;;
80219;SDS011;69535;37.974;23.708;2023-05-10T13:20:19;4.50;;;2.65;;
80219;SDS011;69535;37.974;23.708;2023-05-10T13:22:45;3.72;;;2.90;;
80219;SDS011;69535;37.974;23.708;2023-05-10T13:25:11;4.25;;;2.80;;
80219;SDS011;69535;37.974;23.708;2023-05-10T13:27:38;5.57;;;2.90;;
80219;SDS011;69535;37.974;23.708;2023-05-10T13:30:04;3.42;;;2.80;;
80219;SDS011;69535;37.974;23.708;2023-05-10T13:32:30;4.60;;;3.03;;
80219;SDS011;69535;37.974;23.708;2023-05-10T13:34:56;4.20;;;2.67;;
80219;SDS011;69535;37.974;23.708;2023-05-10T13:37:22;3.92;;;2.90;;
80219;SDS011;69535;37.974;23.708;2023-05-10T13:39:48;3.40;;;2.50;;
80219;SDS011;69535;37.974;23.708;2023-05-10T13:42:13;3.92;;;2.78;;
80219;SDS011;69535;37.974;23.708;2023-05-10T13:44:39;4.13;;;2.53;;
80219;SDS011;69535;37.974;23.708;2023-05-10T13:47:05;3.45;;;2.53;;
80219;SDS011;69535;37.974;23.708;2023-05-10T13:49:32;4.00;;;2.70;;
80219;SDS011;69535;37.974;23.708;2023-05-10T13:51:58;8.77;;;5.10;;
80219;SDS011;69535;37.974;23.708;2023-05-10T13:54:30;8.27;;;4.72;;
80219;SDS011;69535;37.974;23.708;2023-05-10T13:56:56;12.35;;;8.07;;
80219;SDS011;69535;37.974;23.708;2023-05-10T13:59:22;17.75;;;9.88;;
80219;SDS011;69535;37.974;23.708;2023-05-10T14:01:48;22.83;;;16.00;;
80219;SDS011;69535;37.974;23.708;2023-05-10T14:04:13;29.15;;;22.27;;
80219;SDS011;69535;37.974;23.708;2023-05-10T14:06:39;29.35;;;21.25;;
80219;SDS011;69535;37.974;23.708;2023-05-10T14:09:05;32.40;;;24.13;;
80219;SDS011;69535;37.974;23.708;2023-05-10T14:11:31;31.23;;;24.65;;
80219;SDS011;69535;37.974;23.708;2023-05-10T14:13:57;31.63;;;25.25;;
80219;SDS011;69535;37.974;23.708;2023-05-10T14:16:22;33.63;;;23.77;;
80219;SDS011;69535;37.974;23.708;2023-05-10T14:18:48;30.02;;;21.27;;
80219;SDS011;69535;37.974;23.708;2023-05-10T14:21:14;25.75;;;18.98;;
80219;SDS011;69535;37.974;23.708;2023-05-10T14:23:40;23.15;;;17.83;;
80219;SDS011;69535;37.974;23.708;2023-05-10T14:26:06;21.65;;;15.40;;
80219;SDS011;69535;37.974;23.708;2023-05-10T14:28:31;18.80;;;13.25;;
80219;SDS011;69535;37.974;23.708;2023-05-10T14:30:57;16.70;;;12.48;;
80219;SDS011;69535;37.974;23.708;2023-05-10T14:33:24;18.52;;;12.30;;
80219;SDS011;69535;37.974;23.708;2023-05-10T14:35:50;16.38;;;11.38;;
80219;SDS011;69535;37.974;23.708;2023-05-10T14:38:16;13.20;;;9.68;;
80219;SDS011;69535;37.974;23.708;2023-05-10T14:40:41;12.32;;;9.30;;
80219;SDS011;69535;37.974;23.708;2023-05-10T14:43:07;9.20;;;7.75;;
80219;SDS011;69535;37.974;23.708;2023-05-10T14:45:33;11.02;;;7.40;;
80219;SDS011;69535;37.974;23.708;2023-05-10T14:47:59;12.02;;;7.47;;
80219;SDS011;69535;37.974;23.708;2023-05-10T14:50:25;12.38;;;7.57;;
80219;SDS011;69535;37.974;23.708;2023-05-10T14:52:51;8.63;;;6.40;;
80219;SDS011;69535;37.974;23.708;2023-05-10T14:55:17;8.18;;;5.95;;
80219;SDS011;69535;37.974;23.708;2023-05-10T14:57:43;9.07;;;5.85;;
80219;SDS011;69535;37.974;23.708;2023-05-10T15:00:11;9.48;;;6.00;;
80219;SDS011;69535;37.974;23.708;2023-05-10T15:02:37;6.78;;;4.97;;
80219;SDS011;69535;37.974;23.708;2023-05-10T15:05:03;8.05;;;4.82;;
80219;SDS011;69535;37.974;23.708;2023-05-10T15:07:29;8.20;;;5.22;;
80219;SDS011;69535;37.974;23.708;2023-05-10T15:09:56;7.38;;;4.82;;
80219;SDS011;69535;37.974;23.708;2023-05-10T15:12:21;7.13;;;4.80;;